createdAt,value
2019-01-06T00:00:39.669Z,0
2019-01-06T00:01:39.660Z,0
2019-01-06T00:02:39.643Z,0
2019-01-06T00:03:39.634Z,0
2019-01-06T00:04:39.632Z,0
2019-01-06T00:05:39.606Z,0
2019-01-06T00:06:39.594Z,0
2019-01-06T00:07:39.578Z,0
2019-01-06T00:08:39.566Z,0
2019-01-06T00:09:39.543Z,0
2019-01-06T00:10:39.532Z,0
2019-01-06T00:11:39.529Z,0
2019-01-06T00:12:39.514Z,0
2019-01-06T00:13:39.488Z,0
2019-01-06T00:14:39.478Z,0
2019-01-06T00:15:39.469Z,0
2019-01-06T00:16:39.456Z,0
2019-01-06T00:17:39.437Z,0
2019-01-06T00:18:39.423Z,0
2019-01-06T00:19:39.406Z,0
2019-01-06T00:20:39.394Z,0
2019-01-06T00:21:39.385Z,0
2019-01-06T00:22:39.366Z,0
2019-01-06T00:23:39.356Z,0
2019-01-06T00:24:39.342Z,0
2019-01-06T00:25:39.327Z,0
2019-01-06T00:26:39.313Z,0
2019-01-06T00:27:39.301Z,0
2019-01-06T00:28:39.356Z,0
2019-01-06T00:29:39.278Z,0
2019-01-06T00:30:39.270Z,0
2019-01-06T00:31:39.247Z,0
2019-01-06T00:32:39.234Z,0
2019-01-06T00:33:39.221Z,0
2019-01-06T00:34:39.211Z,0
2019-01-06T00:35:39.200Z,0
2019-01-06T00:36:39.217Z,0
2019-01-06T00:37:39.162Z,0
2019-01-06T00:38:39.146Z,0
2019-01-06T00:39:39.140Z,0
2019-01-06T00:40:39.125Z,0
2019-01-06T00:41:39.106Z,0
2019-01-06T00:42:39.093Z,0
2019-01-06T00:43:39.167Z,0
2019-01-06T00:44:39.075Z,0
2019-01-06T00:45:39.068Z,0
2019-01-06T00:46:39.039Z,0
2019-01-06T00:47:39.035Z,0
2019-01-06T00:48:38.773Z,0
2019-01-06T00:49:38.771Z,0
2019-01-06T00:50:38.985Z,0
2019-01-06T00:51:38.977Z,0
2019-01-06T00:52:38.959Z,0
2019-01-06T00:53:38.949Z,0
2019-01-06T00:54:38.938Z,0
2019-01-06T00:55:38.926Z,0
2019-01-06T00:56:38.913Z,0
2019-01-06T00:57:38.890Z,0
2019-01-06T00:58:38.882Z,0
2019-01-06T00:59:38.857Z,0
2019-01-06T01:00:38.842Z,0
2019-01-06T01:01:38.830Z,0
2019-01-06T01:02:38.828Z,0
2019-01-06T01:03:38.805Z,0
2019-01-06T01:04:38.794Z,0
2019-01-06T01:05:38.779Z,0
2019-01-06T01:06:38.773Z,0
2019-01-06T01:07:38.504Z,0
2019-01-06T01:08:38.761Z,0
2019-01-06T01:09:40.644Z,0
2019-01-06T01:10:38.728Z,0
2019-01-06T01:11:38.689Z,0
2019-01-06T01:12:38.690Z,0
2019-01-06T01:13:38.673Z,0
2019-01-06T01:14:38.654Z,0
2019-01-06T01:15:38.636Z,0
2019-01-06T01:16:38.629Z,0
2019-01-06T01:17:38.614Z,0
2019-01-06T01:18:38.600Z,0
2019-01-06T01:19:38.580Z,0
2019-01-06T01:20:38.567Z,0
2019-01-06T01:21:38.643Z,0
2019-01-06T01:22:38.540Z,0
2019-01-06T01:23:38.522Z,0
2019-01-06T01:24:38.510Z,0
2019-01-06T01:25:38.497Z,0
2019-01-06T01:26:38.481Z,0
2019-01-06T01:27:38.467Z,0
2019-01-06T01:28:38.479Z,0
2019-01-06T01:29:38.431Z,0
2019-01-06T01:30:38.428Z,0
2019-01-06T01:31:38.407Z,0
2019-01-06T01:32:38.403Z,0
2019-01-06T01:33:38.375Z,0
2019-01-06T01:34:38.367Z,0
2019-01-06T01:35:38.349Z,0
2019-01-06T01:36:38.638Z,0
2019-01-06T01:37:38.319Z,0
2019-01-06T01:38:38.309Z,0
2019-01-06T01:39:38.292Z,0
2019-01-06T01:40:38.275Z,0
2019-01-06T01:41:38.262Z,0
2019-01-06T01:42:38.244Z,0
2019-01-06T01:43:38.230Z,0
2019-01-06T01:44:38.222Z,0
2019-01-06T01:45:38.214Z,0
2019-01-06T01:46:38.187Z,0
2019-01-06T01:47:38.174Z,0
2019-01-06T01:48:38.160Z,0
2019-01-06T01:49:38.140Z,0
2019-01-06T01:50:38.129Z,0
2019-01-06T01:51:38.109Z,0
2019-01-06T01:52:38.095Z,0
2019-01-06T01:53:38.080Z,0
2019-01-06T01:54:38.063Z,0
2019-01-06T01:55:38.056Z,0
2019-01-06T01:56:38.037Z,0
2019-01-06T01:57:38.027Z,0
2019-01-06T01:58:38.002Z,0
2019-01-06T01:59:37.993Z,0
2019-01-06T02:00:37.973Z,0
2019-01-06T02:01:37.961Z,0
2019-01-06T02:02:37.937Z,0
2019-01-06T02:03:37.925Z,0
2019-01-06T02:04:37.919Z,0
2019-01-06T02:05:37.905Z,0
2019-01-06T02:06:37.882Z,0
2019-01-06T02:07:37.867Z,0
2019-01-06T02:08:37.852Z,0
2019-01-06T02:09:37.837Z,0
2019-01-06T02:10:37.816Z,0
2019-01-06T02:11:37.630Z,0
2019-01-06T02:12:37.800Z,0
2019-01-06T02:13:37.772Z,0
2019-01-06T02:14:37.759Z,0
2019-01-06T02:15:37.745Z,0
2019-01-06T02:16:37.725Z,0
2019-01-06T02:17:37.714Z,0
2019-01-06T02:18:37.700Z,0
2019-01-06T02:19:37.704Z,0
2019-01-06T02:20:37.667Z,0
2019-01-06T02:21:37.654Z,0
2019-01-06T02:22:37.643Z,0
2019-01-06T02:23:37.622Z,0
2019-01-06T02:24:37.684Z,0
2019-01-06T02:25:37.593Z,0
2019-01-06T02:26:37.589Z,0
2019-01-06T02:27:37.566Z,0
2019-01-06T02:28:37.548Z,0
2019-01-06T02:29:37.533Z,0
2019-01-06T02:30:37.516Z,0
2019-01-06T02:31:37.503Z,0
2019-01-06T02:32:38.726Z,0
2019-01-06T02:33:37.473Z,0
2019-01-06T02:34:37.461Z,0
2019-01-06T02:35:37.456Z,0
2019-01-06T02:36:37.451Z,0
2019-01-06T02:37:37.419Z,0
2019-01-06T02:38:37.410Z,0
2019-01-06T02:39:37.389Z,0
2019-01-06T02:40:37.390Z,0
2019-01-06T02:41:37.363Z,0
2019-01-06T02:42:37.352Z,0
2019-01-06T02:43:37.323Z,0
2019-01-06T02:44:37.308Z,0
2019-01-06T02:45:37.314Z,0
2019-01-06T02:46:37.287Z,0
2019-01-06T02:47:37.263Z,0
2019-01-06T02:48:37.245Z,0
2019-01-06T02:49:37.232Z,0
2019-01-06T02:50:36.978Z,0
2019-01-06T02:51:37.202Z,0
2019-01-06T02:52:37.186Z,0
2019-01-06T02:53:37.170Z,0
2019-01-06T02:54:37.158Z,0
2019-01-06T02:55:37.175Z,0
2019-01-06T02:56:37.126Z,0
2019-01-06T02:57:37.110Z,0
2019-01-06T02:58:37.095Z,0
2019-01-06T02:59:37.089Z,0
2019-01-06T03:00:37.146Z,0
2019-01-06T03:01:37.054Z,0
2019-01-06T03:02:37.034Z,0
2019-01-06T03:03:37.022Z,0
2019-01-06T03:04:37.034Z,0
2019-01-06T03:05:37.013Z,0
2019-01-06T03:06:36.993Z,0
2019-01-06T03:07:36.969Z,0
2019-01-06T03:08:36.996Z,0
2019-01-06T03:09:36.935Z,0
2019-01-06T03:10:36.924Z,0
2019-01-06T03:11:36.918Z,0
2019-01-06T03:12:36.890Z,0
2019-01-06T03:13:36.872Z,0
2019-01-06T03:14:36.856Z,0
2019-01-06T03:15:36.853Z,0
2019-01-06T03:16:36.587Z,0
2019-01-06T03:17:36.810Z,0
2019-01-06T03:18:36.881Z,0
2019-01-06T03:19:36.778Z,0
2019-01-06T03:20:36.772Z,0
2019-01-06T03:21:36.754Z,0
2019-01-06T03:22:36.734Z,0
2019-01-06T03:23:36.724Z,0
2019-01-06T03:24:36.713Z,0
2019-01-06T03:25:36.715Z,0
2019-01-06T03:26:36.678Z,0
2019-01-06T03:27:36.659Z,0
2019-01-06T03:28:36.684Z,0
2019-01-06T03:29:36.632Z,0
2019-01-06T03:30:36.637Z,0
2019-01-06T03:31:36.653Z,0
2019-01-06T03:32:36.610Z,0
2019-01-06T03:33:36.568Z,0
2019-01-06T03:34:36.567Z,0
2019-01-06T03:35:36.556Z,0
2019-01-06T03:36:36.530Z,0
2019-01-06T03:37:36.516Z,0
2019-01-06T03:38:36.500Z,0
2019-01-06T03:39:36.512Z,0
2019-01-06T03:40:36.466Z,0
2019-01-06T03:41:36.545Z,0
2019-01-06T03:42:36.208Z,0
2019-01-06T03:43:36.426Z,0
2019-01-06T03:44:36.408Z,0
2019-01-06T03:45:36.395Z,0
2019-01-06T03:46:36.400Z,0
2019-01-06T03:47:36.361Z,0
2019-01-06T03:48:36.357Z,0
2019-01-06T03:49:36.335Z,0
2019-01-06T03:50:36.328Z,0
2019-01-06T03:51:36.304Z,0
2019-01-06T03:52:36.307Z,0
2019-01-06T03:53:36.383Z,0
2019-01-06T03:54:36.288Z,0
2019-01-06T03:55:36.253Z,0
2019-01-06T03:56:36.230Z,0
2019-01-06T03:57:36.220Z,0
2019-01-06T03:58:36.221Z,0
2019-01-06T03:59:36.235Z,0
2019-01-06T04:00:36.225Z,0
2019-01-06T04:01:36.178Z,0
2019-01-06T04:02:36.297Z,0
2019-01-06T04:03:36.124Z,0
2019-01-06T04:04:36.113Z,0
2019-01-06T04:05:36.096Z,0
2019-01-06T04:06:36.077Z,0
2019-01-06T04:07:36.070Z,0
2019-01-06T04:08:36.058Z,0
2019-01-06T04:09:35.830Z,0
2019-01-06T04:10:36.034Z,0
2019-01-06T04:11:36.006Z,0
2019-01-06T04:12:35.993Z,0
2019-01-06T04:13:35.988Z,0
2019-01-06T04:14:35.973Z,0
2019-01-06T04:15:35.953Z,0
2019-01-06T04:16:35.937Z,0
2019-01-06T04:17:37.888Z,0
2019-01-06T04:18:35.913Z,0
2019-01-06T04:19:35.973Z,0
2019-01-06T04:20:35.873Z,0
2019-01-06T04:21:35.861Z,0
2019-01-06T04:22:35.837Z,0
2019-01-06T04:23:35.829Z,0
2019-01-06T04:24:35.813Z,0
2019-01-06T04:25:35.791Z,0
2019-01-06T04:26:35.775Z,0
2019-01-06T04:27:35.840Z,0
2019-01-06T04:28:35.760Z,0
2019-01-06T04:29:35.734Z,0
2019-01-06T04:30:35.490Z,0
2019-01-06T04:31:35.717Z,0
2019-01-06T04:32:35.690Z,0
2019-01-06T04:33:35.688Z,0
2019-01-06T04:34:35.674Z,0
2019-01-06T04:35:35.652Z,0
2019-01-06T04:36:35.631Z,0
2019-01-06T04:37:35.620Z,0
2019-01-06T04:38:35.608Z,0
2019-01-06T04:39:35.582Z,0
2019-01-06T04:40:35.576Z,0
2019-01-06T04:41:35.552Z,0
2019-01-06T04:42:35.544Z,0
2019-01-06T04:43:35.587Z,0
2019-01-06T04:44:35.509Z,0
2019-01-06T04:45:35.530Z,0
2019-01-06T04:46:35.478Z,0
2019-01-06T04:47:35.474Z,0
2019-01-06T04:48:35.215Z,0
2019-01-06T04:49:35.431Z,0
2019-01-06T04:50:36.863Z,0
2019-01-06T04:51:35.457Z,0
2019-01-06T04:52:35.390Z,0
2019-01-06T04:53:35.392Z,0
2019-01-06T04:54:35.377Z,0
2019-01-06T04:55:35.348Z,0
2019-01-06T04:56:35.337Z,0
2019-01-06T04:57:35.333Z,0
2019-01-06T04:58:35.312Z,0
2019-01-06T04:59:35.044Z,0
2019-01-06T05:00:35.272Z,0
2019-01-06T05:01:35.285Z,0
2019-01-06T05:02:34.997Z,0
2019-01-06T05:03:35.244Z,0
2019-01-06T05:04:35.549Z,0
2019-01-06T05:05:35.195Z,0
2019-01-06T05:06:35.188Z,0
2019-01-06T05:07:35.184Z,0
2019-01-06T05:08:34.907Z,0
2019-01-06T05:09:35.159Z,0
2019-01-06T05:10:35.125Z,0
2019-01-06T05:11:35.130Z,0
2019-01-06T05:12:35.089Z,0
2019-01-06T05:13:35.086Z,0
2019-01-06T05:14:35.140Z,0
2019-01-06T05:15:35.043Z,0
2019-01-06T05:16:35.031Z,0
2019-01-06T05:17:35.013Z,0
2019-01-06T05:18:35.025Z,0
2019-01-06T05:19:34.986Z,0
2019-01-06T05:20:34.969Z,0
2019-01-06T05:21:35.074Z,0
2019-01-06T05:22:34.931Z,0
2019-01-06T05:23:34.923Z,0
2019-01-06T05:24:34.903Z,0
2019-01-06T05:25:34.892Z,0
2019-01-06T05:26:34.878Z,0
2019-01-06T05:27:34.853Z,0
2019-01-06T05:28:34.846Z,0
2019-01-06T05:29:34.826Z,0
2019-01-06T05:30:34.818Z,0
2019-01-06T05:31:34.804Z,0
2019-01-06T05:32:34.787Z,0
2019-01-06T05:33:34.766Z,0
2019-01-06T05:34:34.745Z,0
2019-01-06T05:35:34.731Z,0
2019-01-06T05:36:34.731Z,0
2019-01-06T05:37:34.702Z,0
2019-01-06T05:38:34.677Z,0
2019-01-06T05:39:34.659Z,0
2019-01-06T05:40:34.651Z,0
2019-01-06T05:41:34.657Z,0
2019-01-06T05:42:34.615Z,0
2019-01-06T05:43:34.601Z,0
2019-01-06T05:44:34.624Z,0
2019-01-06T05:45:34.595Z,0
2019-01-06T05:46:34.550Z,0
2019-01-06T05:47:34.292Z,0
2019-01-06T05:48:34.517Z,0
2019-01-06T05:49:34.510Z,0
2019-01-06T05:50:34.486Z,0
2019-01-06T05:51:34.469Z,0
2019-01-06T05:52:34.456Z,0
2019-01-06T05:53:34.432Z,0
2019-01-06T05:54:34.450Z,0
2019-01-06T05:55:34.406Z,0
2019-01-06T05:56:34.391Z,0
2019-01-06T05:57:34.383Z,0
2019-01-06T05:58:34.356Z,0
2019-01-06T05:59:34.335Z,0
2019-01-06T06:00:34.325Z,0
2019-01-06T06:01:34.308Z,0
2019-01-06T06:02:34.290Z,0
2019-01-06T06:03:34.271Z,0
2019-01-06T06:04:34.022Z,0
2019-01-06T06:05:34.250Z,0
2019-01-06T06:06:34.229Z,0
2019-01-06T06:07:34.681Z,0
2019-01-06T06:08:34.192Z,0
2019-01-06T06:09:34.185Z,0
2019-01-06T06:10:34.162Z,0
2019-01-06T06:11:34.147Z,0
2019-01-06T06:12:34.132Z,0
2019-01-06T06:13:34.442Z,0
2019-01-06T06:14:34.100Z,0
2019-01-06T06:15:34.086Z,0
2019-01-06T06:16:34.082Z,0
2019-01-06T06:17:34.052Z,0
2019-01-06T06:18:34.035Z,0
2019-01-06T06:19:34.019Z,0
2019-01-06T06:20:33.999Z,0
2019-01-06T06:21:33.976Z,0
2019-01-06T06:22:33.969Z,0
2019-01-06T06:23:34.027Z,0
2019-01-06T06:24:33.933Z,0
2019-01-06T06:25:33.921Z,0
2019-01-06T06:26:33.905Z,0
2019-01-06T06:27:33.888Z,0
2019-01-06T06:28:33.869Z,0
2019-01-06T06:29:33.852Z,0
2019-01-06T06:30:35.040Z,0
2019-01-06T06:31:33.824Z,0
2019-01-06T06:32:33.804Z,0
2019-01-06T06:33:33.792Z,0
2019-01-06T06:34:33.785Z,0
2019-01-06T06:35:33.756Z,0
2019-01-06T06:36:33.748Z,0
2019-01-06T06:37:33.723Z,0
2019-01-06T06:38:33.992Z,0
2019-01-06T06:39:33.698Z,0
2019-01-06T06:40:33.673Z,0
2019-01-06T06:41:33.660Z,0
2019-01-06T06:42:33.404Z,0
2019-01-06T06:43:33.629Z,0
2019-01-06T06:44:33.616Z,0
2019-01-06T06:45:33.596Z,0
2019-01-06T06:46:33.577Z,0
2019-01-06T06:47:33.567Z,0
2019-01-06T06:48:33.555Z,0
2019-01-06T06:49:33.546Z,0
2019-01-06T06:50:33.522Z,0
2019-01-06T06:51:33.506Z,0
2019-01-06T06:52:33.485Z,0
2019-01-06T06:53:33.479Z,0
2019-01-06T06:54:33.467Z,0
2019-01-06T06:55:33.440Z,0
2019-01-06T06:56:33.425Z,0
2019-01-06T06:57:33.411Z,0
2019-01-06T06:58:33.396Z,0
2019-01-06T06:59:33.385Z,0
2019-01-06T07:00:33.366Z,0
2019-01-06T07:01:33.423Z,0
2019-01-06T07:02:33.338Z,0
2019-01-06T07:03:33.317Z,0
2019-01-06T07:04:33.310Z,0
2019-01-06T07:05:33.291Z,0
2019-01-06T07:06:33.267Z,0
2019-01-06T07:07:33.261Z,0
2019-01-06T07:08:33.237Z,5
2019-01-06T07:09:33.227Z,5
2019-01-06T07:10:33.210Z,5
2019-01-06T07:11:33.213Z,5
2019-01-06T07:12:33.176Z,5
2019-01-06T07:13:33.187Z,5
2019-01-06T07:14:33.259Z,5
2019-01-06T07:15:33.136Z,5
2019-01-06T07:16:33.114Z,10
2019-01-06T07:17:33.194Z,10
2019-01-06T07:18:33.097Z,10
2019-01-06T07:19:33.072Z,10
2019-01-06T07:20:33.054Z,10
2019-01-06T07:21:33.045Z,10
2019-01-06T07:22:33.023Z,10
2019-01-06T07:23:33.012Z,15
2019-01-06T07:24:32.993Z,15
2019-01-06T07:25:32.990Z,15
2019-01-06T07:26:32.971Z,15
2019-01-06T07:27:32.950Z,20
2019-01-06T07:28:32.932Z,20
2019-01-06T07:29:32.917Z,20
2019-01-06T07:30:32.900Z,20
2019-01-06T07:31:32.889Z,20
2019-01-06T07:32:32.872Z,20
2019-01-06T07:33:32.859Z,25
2019-01-06T07:34:32.841Z,25
2019-01-06T07:35:32.824Z,25
2019-01-06T07:36:32.808Z,25
2019-01-06T07:37:32.796Z,25
2019-01-06T07:38:32.775Z,30
2019-01-06T07:39:32.786Z,30
2019-01-06T07:40:32.752Z,30
2019-01-06T07:41:32.737Z,30
2019-01-06T07:42:32.719Z,35
2019-01-06T07:43:32.702Z,35
2019-01-06T07:44:32.686Z,35
2019-01-06T07:45:32.672Z,35
2019-01-06T07:46:32.653Z,35
2019-01-06T07:47:32.636Z,40
2019-01-06T07:48:32.622Z,40
2019-01-06T07:49:32.608Z,40
2019-01-06T07:50:32.592Z,40
2019-01-06T07:51:32.590Z,45
2019-01-06T07:52:32.562Z,45
2019-01-06T07:53:32.548Z,45
2019-01-06T07:54:32.538Z,50
2019-01-06T07:55:32.519Z,50
2019-01-06T07:56:32.500Z,50
2019-01-06T07:57:32.491Z,55
2019-01-06T07:58:32.475Z,55
2019-01-06T07:59:32.476Z,60
2019-01-06T08:00:32.461Z,60
2019-01-06T08:01:32.430Z,65
2019-01-06T08:02:33.600Z,65
2019-01-06T08:03:32.409Z,65
2019-01-06T08:04:32.383Z,70
2019-01-06T08:05:32.370Z,70
2019-01-06T08:06:32.356Z,70
2019-01-06T08:07:32.348Z,75
2019-01-06T08:08:32.320Z,75
2019-01-06T08:09:32.316Z,75
2019-01-06T08:10:32.294Z,75
2019-01-06T08:11:32.278Z,80
2019-01-06T08:12:32.348Z,80
2019-01-06T08:13:32.250Z,85
2019-01-06T08:14:32.236Z,85
2019-01-06T08:15:32.234Z,90
2019-01-06T08:16:32.202Z,90
2019-01-06T08:17:32.187Z,90
2019-01-06T08:18:32.168Z,95
2019-01-06T08:19:32.155Z,95
2019-01-06T08:20:32.888Z,95
2019-01-06T08:21:32.124Z,95
2019-01-06T08:22:32.111Z,95
2019-01-06T08:23:32.096Z,100
2019-01-06T08:24:32.098Z,105
2019-01-06T08:25:32.064Z,105
2019-01-06T08:26:32.050Z,105
2019-01-06T08:27:32.038Z,110
2019-01-06T08:28:32.027Z,110
2019-01-06T08:29:32.009Z,115
2019-01-06T08:30:32.001Z,115
2019-01-06T08:31:31.980Z,115
2019-01-06T08:32:31.958Z,110
2019-01-06T08:33:31.948Z,110
2019-01-06T08:34:31.941Z,110
2019-01-06T08:35:31.918Z,110
2019-01-06T08:36:31.904Z,105
2019-01-06T08:37:31.901Z,105
2019-01-06T08:38:31.871Z,105
2019-01-06T08:39:31.856Z,100
2019-01-06T08:40:31.847Z,100
2019-01-06T08:41:31.651Z,100
2019-01-06T08:42:31.815Z,100
2019-01-06T08:43:31.804Z,105
2019-01-06T08:44:31.791Z,105
2019-01-06T08:45:31.770Z,105
2019-01-06T08:46:31.769Z,105
2019-01-06T08:47:31.809Z,110
2019-01-06T08:48:31.488Z,110
2019-01-06T08:49:31.466Z,115
2019-01-06T08:50:31.697Z,130
2019-01-06T08:51:31.691Z,135
2019-01-06T08:52:31.669Z,150
2019-01-06T08:53:31.659Z,155
2019-01-06T08:54:31.641Z,145
2019-01-06T08:55:31.644Z,150
2019-01-06T08:56:32.498Z,145
2019-01-06T08:57:31.608Z,145
2019-01-06T08:58:31.587Z,145
2019-01-06T08:59:31.575Z,150
2019-01-06T09:00:31.561Z,155
2019-01-06T09:01:31.540Z,155
2019-01-06T09:02:31.524Z,160
2019-01-06T09:03:31.506Z,160
2019-01-06T09:04:31.254Z,160
2019-01-06T09:05:31.478Z,165
2019-01-06T09:06:31.469Z,170
2019-01-06T09:07:31.455Z,170
2019-01-06T09:08:31.450Z,170
2019-01-06T09:09:31.427Z,170
2019-01-06T09:10:31.412Z,175
2019-01-06T09:11:31.394Z,170
2019-01-06T09:12:31.384Z,170
2019-01-06T09:13:31.368Z,165
2019-01-06T09:14:31.348Z,165
2019-01-06T09:15:31.435Z,160
2019-01-06T09:16:31.323Z,160
2019-01-06T09:17:31.310Z,165
2019-01-06T09:18:31.305Z,165
2019-01-06T09:19:31.289Z,165
2019-01-06T09:20:31.275Z,170
2019-01-06T09:21:31.016Z,170
2019-01-06T09:22:31.255Z,170
2019-01-06T09:23:31.236Z,170
2019-01-06T09:24:31.223Z,170
2019-01-06T09:25:31.214Z,170
2019-01-06T09:26:31.188Z,175
2019-01-06T09:27:31.192Z,175
2019-01-06T09:28:31.168Z,175
2019-01-06T09:29:32.393Z,175
2019-01-06T09:30:31.153Z,175
2019-01-06T09:31:31.128Z,170
2019-01-06T09:32:31.110Z,170
2019-01-06T09:33:31.102Z,170
2019-01-06T09:34:31.086Z,165
2019-01-06T09:35:31.253Z,170
2019-01-06T09:36:31.067Z,175
2019-01-06T09:37:31.096Z,170
2019-01-06T09:38:31.037Z,170
2019-01-06T09:39:31.018Z,170
2019-01-06T09:40:31.905Z,170
2019-01-06T09:41:30.997Z,175
2019-01-06T09:42:30.979Z,175
2019-01-06T09:43:30.966Z,175
2019-01-06T09:44:30.963Z,175
2019-01-06T09:45:33.366Z,175
2019-01-06T09:46:30.929Z,175
2019-01-06T09:47:30.915Z,180
2019-01-06T09:48:30.902Z,190
2019-01-06T09:49:30.895Z,200
2019-01-06T09:50:30.877Z,210
2019-01-06T09:51:30.871Z,210
2019-01-06T09:52:30.849Z,215
2019-01-06T09:53:30.845Z,220
2019-01-06T09:54:30.870Z,230
2019-01-06T09:55:30.817Z,230
2019-01-06T09:56:30.808Z,235
2019-01-06T09:57:30.794Z,240
2019-01-06T09:58:30.781Z,235
2019-01-06T09:59:30.766Z,240
2019-01-06T10:00:30.758Z,245
2019-01-06T10:01:30.741Z,230
2019-01-06T10:02:30.735Z,240
2019-01-06T10:03:30.720Z,250
2019-01-06T10:04:37.530Z,245
2019-01-06T10:05:30.766Z,235
2019-01-06T10:06:30.676Z,235
2019-01-06T10:07:30.668Z,225
2019-01-06T10:08:30.654Z,220
2019-01-06T10:09:30.650Z,210
2019-01-06T10:10:30.639Z,195
2019-01-06T10:11:30.620Z,165
2019-01-06T10:12:30.690Z,165
2019-01-06T10:13:30.656Z,160
2019-01-06T10:14:30.605Z,145
2019-01-06T10:15:30.575Z,140
2019-01-06T10:16:30.568Z,135
2019-01-06T10:17:30.550Z,135
2019-01-06T10:18:30.541Z,145
2019-01-06T10:19:30.521Z,150
2019-01-06T10:20:30.512Z,155
2019-01-06T10:21:30.015Z,165
2019-01-06T10:22:30.544Z,170
2019-01-06T10:23:30.475Z,170
2019-01-06T10:24:30.464Z,170
2019-01-06T10:25:30.455Z,170
2019-01-06T10:26:30.442Z,175
2019-01-06T10:27:30.458Z,175
2019-01-06T10:28:30.502Z,175
2019-01-06T10:29:30.416Z,175
2019-01-06T10:30:30.399Z,180
2019-01-06T10:31:30.392Z,180
2019-01-06T10:32:30.375Z,180
2019-01-06T10:33:30.387Z,165
2019-01-06T10:34:32.348Z,160
2019-01-06T10:35:30.338Z,165
2019-01-06T10:36:30.320Z,175
2019-01-06T10:37:30.344Z,180
2019-01-06T10:38:30.303Z,180
2019-01-06T10:39:30.291Z,185
2019-01-06T10:40:30.288Z,185
2019-01-06T10:41:30.257Z,190
2019-01-06T10:42:30.251Z,190
2019-01-06T10:43:30.236Z,200
2019-01-06T10:44:30.220Z,215
2019-01-06T10:45:31.475Z,215
2019-01-06T10:46:30.201Z,220
2019-01-06T10:47:30.184Z,225
2019-01-06T10:48:30.254Z,225
2019-01-06T10:49:30.166Z,230
2019-01-06T10:50:30.768Z,240
2019-01-06T10:51:30.150Z,240
2019-01-06T10:52:30.130Z,245
2019-01-06T10:53:30.110Z,240
2019-01-06T10:54:30.110Z,240
2019-01-06T10:55:30.089Z,230
2019-01-06T10:56:30.076Z,230
2019-01-06T10:57:30.070Z,235
2019-01-06T10:58:30.057Z,245
2019-01-06T10:59:30.044Z,255
2019-01-06T11:00:30.037Z,275
2019-01-06T11:01:30.022Z,280
2019-01-06T11:02:31.894Z,290
2019-01-06T11:03:29.996Z,295
2019-01-06T11:04:30.004Z,295
2019-01-06T11:05:29.996Z,305
2019-01-06T11:06:29.965Z,305
2019-01-06T11:07:30.043Z,295
2019-01-06T11:08:29.941Z,280
2019-01-06T11:09:29.932Z,270
2019-01-06T11:10:29.920Z,265
2019-01-06T11:11:29.936Z,270
2019-01-06T11:12:29.906Z,255
2019-01-06T11:13:29.883Z,250
2019-01-06T11:14:29.875Z,245
2019-01-06T11:15:29.858Z,245
2019-01-06T11:16:29.851Z,250
2019-01-06T11:17:29.843Z,250
2019-01-06T11:18:29.823Z,250
2019-01-06T11:19:29.827Z,245
2019-01-06T11:20:29.810Z,240
2019-01-06T11:21:29.797Z,235
2019-01-06T11:22:29.783Z,235
2019-01-06T11:23:29.849Z,240
2019-01-06T11:24:29.760Z,240
2019-01-06T11:25:29.750Z,240
2019-01-06T11:26:29.743Z,235
2019-01-06T11:27:29.743Z,240
2019-01-06T11:28:29.739Z,240
2019-01-06T11:29:29.709Z,240
2019-01-06T11:30:29.704Z,240
2019-01-06T11:31:29.760Z,235
2019-01-06T11:32:29.674Z,230
2019-01-06T11:33:29.660Z,230
2019-01-06T11:34:29.653Z,230
2019-01-06T11:35:29.655Z,225
2019-01-06T11:36:29.383Z,225
2019-01-06T11:37:29.615Z,225
2019-01-06T11:38:29.602Z,225
2019-01-06T11:39:29.606Z,220
2019-01-06T11:40:29.595Z,220
2019-01-06T11:41:29.574Z,220
2019-01-06T11:42:29.570Z,220
2019-01-06T11:43:29.558Z,220
2019-01-06T11:44:29.544Z,220
2019-01-06T11:45:29.539Z,220
2019-01-06T11:46:29.518Z,215
2019-01-06T11:47:29.501Z,215
2019-01-06T11:48:29.495Z,210
2019-01-06T11:49:30.442Z,205
2019-01-06T11:50:29.483Z,205
2019-01-06T11:51:29.475Z,200
2019-01-06T11:52:29.456Z,195
2019-01-06T11:53:29.442Z,190
2019-01-06T11:54:29.446Z,195
2019-01-06T11:55:29.464Z,190
2019-01-06T11:56:29.412Z,190
2019-01-06T11:57:29.409Z,190
2019-01-06T11:58:29.421Z,190
2019-01-06T11:59:29.371Z,190
2019-01-06T12:00:29.359Z,190
2019-01-06T12:01:29.350Z,190
2019-01-06T12:02:29.340Z,190
2019-01-06T12:03:29.351Z,195
2019-01-06T12:04:29.320Z,195
2019-01-06T12:05:29.309Z,195
2019-01-06T12:06:29.293Z,200
2019-01-06T12:07:29.279Z,205
2019-01-06T12:08:29.347Z,210
2019-01-06T12:09:29.016Z,215
2019-01-06T12:10:29.246Z,220
2019-01-06T12:11:29.238Z,225
2019-01-06T12:12:29.219Z,230
2019-01-06T12:13:29.767Z,235
2019-01-06T12:14:29.206Z,230
2019-01-06T12:15:29.189Z,235
2019-01-06T12:16:29.175Z,230
2019-01-06T12:17:29.164Z,225
2019-01-06T12:18:29.151Z,225
2019-01-06T12:19:36.211Z,220
2019-01-06T12:20:29.137Z,215
2019-01-06T12:21:29.121Z,190
2019-01-06T12:22:29.104Z,185
2019-01-06T12:23:29.103Z,195
2019-01-06T12:24:29.082Z,185
2019-01-06T12:25:29.080Z,195
2019-01-06T12:26:29.071Z,190
2019-01-06T12:27:29.049Z,180
2019-01-06T12:28:29.049Z,175
2019-01-06T12:29:29.031Z,165
2019-01-06T12:30:29.020Z,160
2019-01-06T12:31:29.008Z,155
2019-01-06T12:32:29.060Z,145
2019-01-06T12:33:28.979Z,130
2019-01-06T12:34:28.966Z,125
2019-01-06T12:35:28.954Z,130
2019-01-06T12:36:28.943Z,130
2019-01-06T12:37:28.691Z,125
2019-01-06T12:38:28.927Z,125
2019-01-06T12:39:28.908Z,125
2019-01-06T12:40:28.903Z,115
2019-01-06T12:41:28.884Z,105
2019-01-06T12:42:28.872Z,100
2019-01-06T12:43:28.858Z,95
2019-01-06T12:44:29.482Z,85
2019-01-06T12:45:28.842Z,75
2019-01-06T12:46:28.824Z,70
2019-01-06T12:47:28.814Z,60
2019-01-06T12:48:28.800Z,60
2019-01-06T12:49:28.793Z,65
2019-01-06T12:50:28.776Z,70
2019-01-06T12:51:28.763Z,80
2019-01-06T12:52:28.758Z,85
2019-01-06T12:53:28.753Z,90
2019-01-06T12:54:28.733Z,85
2019-01-06T12:55:28.715Z,80
2019-01-06T12:56:28.708Z,85
2019-01-06T12:57:28.703Z,90
2019-01-06T12:58:28.684Z,90
2019-01-06T12:59:28.689Z,90
2019-01-06T13:00:28.658Z,90
2019-01-06T13:01:29.821Z,95
2019-01-06T13:02:28.636Z,95
2019-01-06T13:03:28.668Z,95
2019-01-06T13:04:28.367Z,95
2019-01-06T13:05:28.612Z,95
2019-01-06T13:06:28.582Z,100
2019-01-06T13:07:28.568Z,100
2019-01-06T13:08:29.006Z,100
2019-01-06T13:09:28.548Z,105
2019-01-06T13:10:28.531Z,110
2019-01-06T13:11:28.542Z,110
2019-01-06T13:12:28.508Z,110
2019-01-06T13:13:36.487Z,105
2019-01-06T13:14:28.486Z,105
2019-01-06T13:15:28.466Z,105
2019-01-06T13:16:28.460Z,110
2019-01-06T13:17:28.444Z,105
2019-01-06T13:18:28.429Z,100
2019-01-06T13:19:28.418Z,100
2019-01-06T13:20:28.438Z,100
2019-01-06T13:21:28.390Z,100
2019-01-06T13:22:28.375Z,100
2019-01-06T13:23:28.384Z,100
2019-01-06T13:24:28.360Z,105
2019-01-06T13:25:28.342Z,110
2019-01-06T13:26:28.094Z,110
2019-01-06T13:27:28.314Z,110
2019-01-06T13:28:28.303Z,110
2019-01-06T13:29:28.290Z,110
2019-01-06T13:30:28.284Z,105
2019-01-06T13:31:28.331Z,110
2019-01-06T13:32:28.288Z,110
2019-01-06T13:33:28.251Z,115
2019-01-06T13:34:28.241Z,115
2019-01-06T13:35:28.212Z,115
2019-01-06T13:36:28.200Z,110
2019-01-06T13:37:28.189Z,110
2019-01-06T13:38:28.180Z,110
2019-01-06T13:39:28.171Z,110
2019-01-06T13:40:28.143Z,105
2019-01-06T13:41:28.130Z,105
2019-01-06T13:42:28.118Z,100
2019-01-06T13:43:28.105Z,95
2019-01-06T13:44:28.098Z,95
2019-01-06T13:45:28.082Z,95
2019-01-06T13:46:28.070Z,95
2019-01-06T13:47:28.052Z,95
2019-01-06T13:48:28.038Z,90
2019-01-06T13:49:28.059Z,85
2019-01-06T13:50:28.089Z,80
2019-01-06T13:51:28.006Z,75
2019-01-06T13:52:27.991Z,75
2019-01-06T13:53:28.817Z,70
2019-01-06T13:54:35.068Z,75
2019-01-06T13:55:27.956Z,70
2019-01-06T13:56:27.958Z,70
2019-01-06T13:57:27.931Z,70
2019-01-06T13:58:27.908Z,70
2019-01-06T13:59:27.910Z,70
2019-01-06T14:00:27.884Z,70
2019-01-06T14:01:27.868Z,75
2019-01-06T14:02:27.860Z,75
2019-01-06T14:03:27.855Z,75
2019-01-06T14:04:27.944Z,75
2019-01-06T14:05:27.821Z,70
2019-01-06T14:06:27.808Z,70
2019-01-06T14:07:27.845Z,70
2019-01-06T14:08:27.779Z,70
2019-01-06T14:09:27.770Z,70
2019-01-06T14:10:27.757Z,70
2019-01-06T14:11:27.742Z,65
2019-01-06T14:12:27.785Z,65
2019-01-06T14:13:27.712Z,65
2019-01-06T14:14:27.701Z,65
2019-01-06T14:15:27.690Z,65
2019-01-06T14:16:27.686Z,60
2019-01-06T14:17:27.668Z,60
2019-01-06T14:18:27.653Z,55
2019-01-06T14:19:27.635Z,50
2019-01-06T14:20:27.629Z,50